Time,TemperatureF,DewpointF,PressureIn,WindDirection,WindDirectionDegrees,WindSpeedMPH,WindSpeedGustMPH,Humidity,HourlyPrecipIn,Conditions,Clouds,dailyrainin,SolarRadiationWatts/m^2,SoftwareType,DateUTC
2015-05-27 00:03:00,53.2,26.9,30.26,WNW,292,2.3,2.3,36,0.00,CLR,FEW,0.00,0.0,WeatherDisplay:10.37,2015-05-27 07:03:00,
2015-05-27 00:08:00,53.1,26.8,30.26,West,270,1.1,0.0,36,0.00,CLR,FEW,0.00,0.0,WeatherDisplay:10.37,2015-05-27 07:08:00,
2015-05-27 00:13:00,53.1,26.8,30.26,West,270,0.0,0.0,36,0.00,CLR,FEW,0.00,0.0,WeatherDisplay:10.37,2015-05-27 07:13:00,
2015-05-27 00:18:00,52.9,26.6,30.26,WSW,248,1.4,1.4,36,0.00,CLR,FEW,0.00,0.0,WeatherDisplay:10.37,2015-05-27 07:18:00,
2015-05-27 00:23:00,52.7,27.1,30.26,WSW,248,1.4,0.0,37,0.00,CLR,FEW,0.00,0.0,WeatherDisplay:10.37,2015-05-27 07:23:00,
2015-05-27 00:28:00,52.9,27.3,30.26,West,270,1.1,0.0,37,0.00,CLR,FEW,0.00,0.0,WeatherDisplay:10.37,2015-05-27 07:28:00,
2015-05-27 00:34:00,52.9,28.0,30.26,West,263,1.0,2.0,38,0.00,CLR,FEW,0.00,0.0,WeatherDisplay:10.37,2015-05-27 07:34:00,
2015-05-27 00:39:00,52.9,27.9,30.26,WSW,248,0.0,0.0,38,0.00,CLR,FEW,0.00,0.0,WeatherDisplay:10.37,2015-05-27 07:39:00,
2015-05-27 00:44:00,53.2,28.8,30.26,West,276,2.0,2.0,39,0.00,CLR,FEW,0.00,0.0,WeatherDisplay:10.37,2015-05-27 07:44:00,
2015-05-27 00:49:00,53.1,28.1,30.26,West,268,1.0,1.0,38,0.00,CLR,FEW,0.00,0.0,WeatherDisplay:10.37,2015-05-27 07:49:00,
2015-05-27 00:54:00,53.1,28.7,30.26,WSW,248,1.4,0.0,39,0.00,CLR,FEW,0.00,0.0,WeatherDisplay:10.37,2015-05-27 07:54:00,
2015-05-27 00:59:00,52.9,27.9,30.26,WSW,248,0.0,0.0,38,0.00,CLR,FEW,0.00,0.0,WeatherDisplay:10.37,2015-05-27 07:59:00,
2015-05-27 01:04:00,52.7,28.4,30.26,WSW,248,0.0,0.0,39,0.00,CLR,FEW,0.00,0.0,WeatherDisplay:10.37,2015-05-27 08:04:00,
2015-05-27 01:09:00,52.2,27.9,30.26,WSW,248,0.0,0.0,39,0.00,CLR,FEW,0.00,0.0,WeatherDisplay:10.37,2015-05-27 08:09:00,
2015-05-27 01:14:00,51.8,28.8,30.26,WSW,248,2.3,2.3,41,0.00,CLR,FEW,0.00,0.0,WeatherDisplay:10.37,2015-05-27 08:14:00,
2015-05-27 01:19:00,51.6,28.1,30.26,WSW,248,1.1,0.0,40,0.00,CLR,FEW,0.00,0.0,WeatherDisplay:10.37,2015-05-27 08:19:00,
2015-05-27 01:24:00,51.6,28.7,30.26,WSW,248,1.1,0.0,41,0.00,CLR,FEW,0.00,0.0,WeatherDisplay:10.37,2015-05-27 08:24:00,
2015-05-27 01:29:00,51.6,28.1,30.26,WSW,248,0.0,0.0,40,0.00,CLR,FEW,0.00,0.0,WeatherDisplay:10.37,2015-05-27 08:29:00,
2015-05-27 01:34:00,51.8,28.2,30.26,WSW,248,3.1,3.1,40,0.00,CLR,FEW,0.00,0.0,WeatherDisplay:10.37,2015-05-27 08:34:00,
2015-05-27 01:39:00,52.0,27.8,30.26,WSW,248,1.1,1.4,39,0.00,CLR,FEW,0.00,0.0,WeatherDisplay:10.37,2015-05-27 08:39:00,
2015-05-27 01:44:00,52.0,27.1,30.26,WSW,248,1.4,1.4,38,0.00,CLR,FEW,0.00,0.0,WeatherDisplay:10.37,2015-05-27 08:44:00,
2015-05-27 01:49:00,51.8,27.0,30.26,WNW,292,2.4,2.4,38,0.00,CLR,FEW,0.00,0.0,WeatherDisplay:10.37,2015-05-27 08:49:00,
2015-05-27 01:54:00,51.8,27.0,30.26,WSW,248,2.3,0.0,38,0.00,CLR,FEW,0.00,0.0,WeatherDisplay:10.37,2015-05-27 08:54:00,
2015-05-27 02:00:00,51.6,26.8,30.26,WSW,255,0.0,0.0,38,0.00,CLR,FEW,0.00,0.0,WeatherDisplay:10.37,2015-05-27 09:00:00,
2015-05-27 02:05:00,51.4,27.3,30.26,WNW,292,1.6,0.0,39,0.00,CLR,FEW,0.00,0.0,WeatherDisplay:10.37,2015-05-27 09:05:00,
2015-05-27 02:10:00,51.4,27.3,30.26,WNW,284,1.0,3.0,39,0.00,CLR,FEW,0.00,0.0,WeatherDisplay:10.37,2015-05-27 09:10:00,
2015-05-27 02:15:00,51.1,26.3,30.26,WSW,248,0.0,0.0,38,0.00,CLR,FEW,0.00,0.0,WeatherDisplay:10.37,2015-05-27 09:15:00,
2015-05-27 02:20:00,50.9,26.8,30.26,WSW,248,0.0,0.0,39,0.00,CLR,FEW,0.00,0.0,WeatherDisplay:10.37,2015-05-27 09:20:00,
2015-05-27 02:25:00,50.5,26.5,30.26,WSW,248,0.0,0.0,39,0.00,CLR,FEW,0.00,0.0,WeatherDisplay:10.37,2015-05-27 09:25:00,
2015-05-27 02:30:00,50.5,26.5,30.26,WSW,248,0.0,0.0,39,0.00,CLR,FEW,0.00,0.0,WeatherDisplay:10.37,2015-05-27 09:30:00,
2015-05-27 02:35:00,50.5,26.5,30.26,West,270,1.1,0.0,39,0.00,CLR,FEW,0.00,0.0,WeatherDisplay:10.37,2015-05-27 09:35:00,
2015-05-27 02:40:00,50.5,26.5,30.26,WSW,248,2.3,2.3,39,0.00,CLR,FEW,0.00,0.0,WeatherDisplay:10.37,2015-05-27 09:40:00,
2015-05-27 02:45:00,50.5,26.5,30.26,West,270,2.2,0.0,39,0.00,CLR,FEW,0.00,0.0,WeatherDisplay:10.37,2015-05-27 09:45:00,
2015-05-27 02:50:00,49.6,26.9,30.26,WSW,248,1.1,1.1,41,0.00,CLR,FEW,0.00,0.0,WeatherDisplay:10.37,2015-05-27 09:50:00,
2015-05-27 02:55:00,49.5,26.7,30.26,WSW,248,0.0,0.0,41,0.00,CLR,FEW,0.00,0.0,WeatherDisplay:10.37,2015-05-27 09:55:00,
2015-05-27 03:00:00,49.1,28.1,30.26,West,270,0.0,0.0,44,0.00,CLR,FEW,0.00,0.0,WeatherDisplay:10.37,2015-05-27 10:00:00,
2015-05-27 03:05:00,48.9,27.4,30.26,WSW,248,0.0,0.0,43,0.00,CLR,FEW,0.00,0.0,WeatherDisplay:10.37,2015-05-27 10:05:00,
2015-05-27 03:10:00,48.7,27.8,30.26,West,270,2.4,2.4,44,0.00,CLR,FEW,0.00,0.0,WeatherDisplay:10.37,2015-05-27 10:10:00,
2015-05-27 03:15:00,48.6,28.7,30.26,West,270,2.9,2.9,46,0.00,CLR,FEW,0.00,0.0,WeatherDisplay:10.37,2015-05-27 10:15:00,
2015-05-27 03:20:00,48.6,28.7,30.26,WSW,248,2.3,2.3,46,0.00,CLR,FEW,0.00,0.0,WeatherDisplay:10.37,2015-05-27 10:20:00,
2015-05-27 03:26:00,48.4,28.0,30.26,WSW,254,0.0,2.0,45,0.00,CLR,FEW,0.00,0.0,WeatherDisplay:10.37,2015-05-27 10:26:00,
2015-05-27 03:31:00,48.3,28.4,30.26,West,268,2.0,2.0,46,0.00,CLR,FEW,0.00,0.0,WeatherDisplay:10.37,2015-05-27 10:31:00,
2015-05-27 03:36:00,48.2,28.9,30.30,West,270,3.5,3.5,47,0.00,CLR,FEW,0.00,0.0,WeatherDisplay:10.37,2015-05-27 10:36:00,